Time,TemperatureF,DewpointF,PressureIn,WindDirection,WindDirectionDegrees,WindSpeedMPH,WindSpeedGustMPH,Humidity,HourlyPrecipIn,Conditions,Clouds,dailyrainin,SoftwareType,DateUTC
2013-07-24 03:43:00,64.0,63.0,29.85,North,0,0.0,-999.0,93,-99.99,,,-99.99,,2013-07-24 07:43:00,
2013-07-24 04:43:00,63.0,61.0,29.86,NNW,340,5.0,-999.0,93,-99.99,,,-99.99,,2013-07-24 08:43:00,
2013-07-24 05:02:00,63.0,61.0,29.86,NNW,340,5.0,-999.0,93,-99.99,,,-99.99,,2013-07-24 09:02:00,
2013-07-24 05:12:00,63.0,61.0,29.86,NNW,340,5.0,-999.0,93,-99.99,,,-99.99,,2013-07-24 09:12:00,
2013-07-24 09:32:00,64.0,59.0,29.92,NNE,30,6.0,-999.0,82,-99.99,,,-99.99,,2013-07-24 13:32:00,
2013-07-24 10:32:00,64.0,59.0,29.93,NNE,30,3.0,-999.0,82,-99.99,,,-99.99,,2013-07-24 14:32:00,
2013-07-24 10:43:00,64.0,61.0,29.93,NNE,30,5.0,-999.0,88,-99.99,,,-99.99,,2013-07-24 14:43:00,
2013-07-24 11:33:00,66.0,61.0,29.94,NE,40,3.0,-999.0,82,-99.99,,,-99.99,,2013-07-24 15:33:00,
2013-07-24 11:43:00,66.0,61.0,29.94,NE,40,3.0,-999.0,82,-99.99,,,-99.99,,2013-07-24 15:43:00,
2013-07-24 12:02:00,68.0,61.0,29.94,North,360,5.0,-999.0,77,-99.99,,,-99.99,,2013-07-24 16:02:00,
2013-07-24 12:12:00,68.0,63.0,29.94,North,10,5.0,-999.0,82,-99.99,,,-99.99,,2013-07-24 16:12:00,
2013-07-24 12:32:00,68.0,63.0,29.94,North,10,6.0,-999.0,82,-99.99,,,-99.99,,2013-07-24 16:32:00,
2013-07-24 12:43:00,70.0,63.0,29.95,North,360,6.0,-999.0,77,-99.99,,,-99.99,,2013-07-24 16:43:00,
2013-07-24 12:53:00,70.0,63.0,29.95,NNE,30,5.0,-999.0,77,-99.99,,,-99.99,,2013-07-24 16:53:00,
2013-07-24 13:02:00,70.0,63.0,29.95,North,0,0.0,-999.0,77,-99.99,,,-99.99,,2013-07-24 17:02:00,
2013-07-24 13:12:00,70.0,63.0,29.95,North,360,5.0,-999.0,77,-99.99,,,-99.99,,2013-07-24 17:12:00,
2013-07-24 13:22:00,70.0,63.0,29.95,North,360,5.0,-999.0,77,-99.99,,,-99.99,,2013-07-24 17:22:00,
2013-07-24 13:33:00,73.0,64.0,29.95,North,10,5.0,-999.0,73,-99.99,,,-99.99,,2013-07-24 17:33:00,
2013-07-24 13:43:00,72.0,63.0,29.95,North,0,0.0,-999.0,73,-99.99,,,-99.99,,2013-07-24 17:43:00,
2013-07-24 13:53:00,72.0,63.0,29.95,North,10,5.0,-999.0,73,-99.99,,,-99.99,,2013-07-24 17:53:00,
2013-07-24 14:02:00,73.0,63.0,29.95,North,350,5.0,-999.0,68,-99.99,,,-99.99,,2013-07-24 18:02:00,
2013-07-24 14:12:00,72.0,63.0,29.95,NNW,330,3.0,-999.0,73,-99.99,,,-99.99,,2013-07-24 18:12:00,
2013-07-24 14:22:00,73.0,64.0,29.95,North,0,0.0,-999.0,73,-99.99,,,-99.99,,2013-07-24 18:22:00,
2013-07-24 14:43:00,73.0,63.0,29.94,NNE,20,3.0,-999.0,68,-99.99,,,-99.99,,2013-07-24 18:43:00,
2013-07-24 14:52:00,75.0,63.0,29.94,North,0,0.0,-999.0,64,-99.99,,,-99.99,,2013-07-24 18:52:00,
2013-07-24 16:02:00,75.0,63.0,29.94,NNE,20,5.0,-999.0,64,-99.99,,,-99.99,,2013-07-24 20:02:00,
2013-07-24 16:13:00,73.0,63.0,29.94,North,10,3.0,-999.0,68,-99.99,,,-99.99,,2013-07-24 20:13:00,
2013-07-24 16:23:00,75.0,63.0,29.94,NNW,340,3.0,-999.0,64,-99.99,,,-99.99,,2013-07-24 20:23:00,
2013-07-24 16:32:00,75.0,61.0,29.94,WNW,300,6.0,-999.0,60,-99.99,,,-99.99,,2013-07-24 20:32:00,
2013-07-24 16:43:00,75.0,61.0,29.94,North,0,0.0,-999.0,60,-99.99,,,-99.99,,2013-07-24 20:43:00,
2013-07-24 16:52:00,73.0,61.0,29.94,North,0,0.0,-999.0,64,-99.99,,,-99.99,,2013-07-24 20:52:00,
2013-07-24 17:03:00,73.0,61.0,29.94,NNE,20,6.0,-999.0,64,-99.99,,,-99.99,,2013-07-24 21:03:00,
2013-07-24 19:43:00,73.0,61.0,29.94,NNE,30,3.0,-999.0,64,-99.99,,,-99.99,,2013-07-24 23:43:00,
2013-07-24 20:02:00,73.0,61.0,29.94,NNE,30,3.0,-999.0,64,-99.99,,,-99.99,,2013-07-25 00:02:00,
2013-07-24 20:43:00,72.0,59.0,29.95,NNE,30,3.0,-999.0,64,-99.99,,,-99.99,,2013-07-25 00:43:00,